Mandan, ND

1:22 PM CDT on March 24, 2017 (GMT -0500)
Mandan

Weather History for KY19 - March, 2013

Change the Weather History Date:

Monday, March 11, 2013

  Actual Average (KBIS) Record (KBIS)
Temperature  
Mean Temperature 26 °F -  
Max Temperature 37 °F 37 °F 70 °F (2016)
Min Temperature 15 °F 18 °F -29 °F (1948)
Degree Days  
Heating Degree Days 39    
Moisture  
Dew Point 22 °F    
Average Humidity 84    
Maximum Humidity 100    
Minimum Humidity 60    
Precipitation  
Precipitation 0.05 in - - ()
Sea Level Pressure  
Sea Level Pressure 29.88 in    
Wind  
Wind Speed 14 mph (West)    
Max Wind Speed 30 mph    
Max Gust Speed 38 mph    
Visibility 10 miles    
Events Rain , Snow    
Averages and records for this station are not official NWS values.
T = Trace of Precipitation, MM = Missing Value Source: NWS Daily Summary

Daily Weather History Graph

Daily Weather History Graph

Search for Another Location

Airport or City:

Trip Planner

Search our weather history database for the weather conditions in past years. The results will help you decide how hot, cold, wet, or windy it might be!

Date:

Astronomy

Mar. 11, 2013 Rise Set
Actual Time 8:03 AM CDT 7:44 PM CDT
Civil Twilight 7:33 AM CDT 8:14 PM CDT
Nautical Twilight 6:58 AM CDT 8:49 PM CDT
Astronomical Twilight 6:22 AM CDT 9:25 PM CDT
Moon 7:36 AM CDT (3/11) 8:02 PM CDT (3/11)
Length of Visible Light 12h 40m
Length of Day
11h 40m
Waning Crescent, 0% of the Moon is Illuminated
Mar 11
Waning Crescent
Mar 11
New
Mar 19
First Quarter
Mar 27
Full
Apr 2
Last Quarter

Hourly Weather History & Observations

Time (CDT) Temp. Windchill Dew Point Humidity Pressure Visibility Wind Dir Wind Speed Gust Speed Precip Events Conditions
12:35 AM 15.8 °F 8.6 °F 15.8 °F 100% 30.02 in 10.0 mi ESE 4.6 mph - N/A   Clear
1:15 AM 15.8 °F 4.2 °F 15.8 °F 100% 30.01 in 10.0 mi ESE 9.2 mph - N/A   Clear
1:55 AM 15.8 °F 4.2 °F 15.8 °F 100% 29.98 in 10.0 mi SSE 9.2 mph - N/A   Scattered Clouds
2:15 AM 15.8 °F 7.2 °F 15.8 °F 100% 29.99 in 10.0 mi South 5.8 mph - N/A   Partly Cloudy
2:35 AM 15.8 °F 7.2 °F 15.8 °F 100% 29.98 in 10.0 mi South 5.8 mph - N/A   Partly Cloudy
2:55 AM 15.8 °F 5.1 °F 15.8 °F 100% 29.97 in 10.0 mi SSE 8.1 mph - N/A   Partly Cloudy
3:15 AM 17.6 °F 8.2 °F 15.8 °F 93% 29.97 in 10.0 mi South 6.9 mph - N/A   Scattered Clouds
3:35 AM 17.6 °F 5.7 °F 15.8 °F 93% 29.95 in 10.0 mi SSE 10.4 mph - N/A   Mostly Cloudy
3:55 AM 17.6 °F 5.7 °F 15.8 °F 93% 29.94 in 10.0 mi South 10.4 mph - N/A   Mostly Cloudy
4:15 AM 17.6 °F 6.4 °F 15.8 °F 93% 29.92 in 10.0 mi South 9.2 mph - N/A   Mostly Cloudy
4:35 AM 17.6 °F 5.7 °F 15.8 °F 93% 29.92 in 10.0 mi South 10.4 mph - N/A   Overcast
4:55 AM 17.6 °F 6.4 °F 17.6 °F 100% 29.91 in 10.0 mi South 9.2 mph - N/A   Mostly Cloudy
5:15 AM 17.6 °F 5.0 °F 17.6 °F 100% 29.89 in 10.0 mi SSE 11.5 mph - N/A   Overcast
5:35 AM 17.6 °F 5.7 °F 17.6 °F 100% 29.88 in 10.0 mi SSE 10.4 mph - N/A   Overcast
5:55 AM 17.6 °F 5.7 °F 17.6 °F 100% 29.87 in 10.0 mi SE 10.4 mph - N/A   Overcast
6:15 AM 17.6 °F 5.0 °F 17.6 °F 100% 29.86 in 10.0 mi SSE 11.5 mph - N/A   Overcast
6:35 AM 19.4 °F 7.2 °F 17.6 °F 93% 29.85 in 10.0 mi South 11.5 mph - N/A   Overcast
6:55 AM 19.4 °F 7.2 °F 17.6 °F 93% 29.83 in 10.0 mi SSE 11.5 mph - N/A   Overcast
7:15 AM 19.4 °F 8.6 °F 17.6 °F 93% 29.83 in 10.0 mi South 9.2 mph - N/A   Mostly Cloudy
7:35 AM 19.4 °F 7.9 °F 17.6 °F 93% 29.85 in 10.0 mi SSW 10.4 mph - N/A   Overcast
7:55 AM 17.6 °F 4.3 °F 17.6 °F 100% 29.83 in 10.0 mi South 12.7 mph - N/A   Overcast
8:15 AM 17.6 °F 4.3 °F 17.6 °F 100% 29.82 in 10.0 mi South 12.7 mph - N/A   Scattered Clouds
8:35 AM 17.6 °F 5.7 °F 17.6 °F 100% 29.81 in 10.0 mi South 10.4 mph - N/A   Partly Cloudy
8:55 AM 17.6 °F 5.0 °F 17.6 °F 100% 29.81 in 10.0 mi South 11.5 mph - N/A   Clear
9:15 AM 19.4 °F 6.6 °F 17.6 °F 93% 29.81 in 10.0 mi South 12.7 mph - N/A   Clear
9:35 AM 19.4 °F 6.6 °F 17.6 °F 93% 29.81 in 10.0 mi SSW 12.7 mph - N/A   Clear
9:55 AM 21.2 °F 12.6 °F 19.4 °F 93% 29.80 in 10.0 mi SSW 6.9 mph - N/A   Clear
10:15 AM 23.0 °F 14.7 °F 19.4 °F 86% 29.81 in 10.0 mi SW 6.9 mph - N/A   Clear
10:35 AM 24.8 °F 16.1 °F 19.4 °F 80% 29.81 in 10.0 mi WSW 8.1 mph - N/A   Clear
10:55 AM 26.6 °F 16.2 °F 23.0 °F 86% 29.81 in 10.0 mi West 11.5 mph - N/A   Clear
11:15 AM 30.2 °F 17.4 °F 24.8 °F 80% 29.81 in 10.0 mi NW 20.7 mph 26.5 mph N/A   Mostly Cloudy
11:35 AM 32.0 °F 19.5 °F 26.6 °F 80% 29.82 in 10.0 mi NW 21.9 mph 26.5 mph N/A   Scattered Clouds
11:55 AM 32.0 °F 18.6 °F 26.6 °F 80% 29.82 in 10.0 mi NW 25.3 mph - N/A   Partly Cloudy
12:15 PM 32.0 °F 18.4 °F 26.6 °F 80% 29.83 in 10.0 mi NW 26.5 mph 31.1 mph N/A   Clear
12:35 PM 32.0 °F 18.6 °F 26.6 °F 80% 29.83 in 10.0 mi NNW 25.3 mph 36.8 mph N/A   Clear
12:55 PM 32.0 °F 18.6 °F 26.6 °F 80% 29.83 in 10.0 mi NNW 25.3 mph 33.4 mph N/A   Clear
1:15 PM 33.8 °F 20.3 °F 26.6 °F 75% 29.84 in 10.0 mi NW 28.8 mph 34.5 mph N/A   Clear
1:35 PM 33.8 °F 20.5 °F 26.6 °F 75% 29.85 in 10.0 mi NW 27.6 mph 36.8 mph N/A   Clear
1:55 PM 35.6 °F 23.2 °F 28.4 °F 75% 29.85 in 10.0 mi NW 26.5 mph 33.4 mph N/A   Clear
2:15 PM 35.6 °F 23.2 °F 28.4 °F 75% 29.85 in 10.0 mi NW 26.5 mph 36.8 mph N/A   Mostly Cloudy
2:35 PM 35.6 °F 23.2 °F 28.4 °F 75% 29.85 in 10.0 mi NW 26.5 mph 34.5 mph N/A   Scattered Clouds
2:55 PM 35.6 °F 24.0 °F 28.4 °F 75% 29.85 in 10.0 mi NW 23.0 mph 32.2 mph N/A   Scattered Clouds
3:15 PM 35.6 °F 24.2 °F 28.4 °F 75% 29.85 in 10.0 mi NW 21.9 mph 29.9 mph N/A   Scattered Clouds
3:35 PM 35.6 °F 23.7 °F 28.4 °F 75% 29.85 in 10.0 mi NW 24.2 mph 32.2 mph N/A   Scattered Clouds
3:55 PM 35.6 °F 23.2 °F 28.4 °F 75% 29.85 in 10.0 mi NW 26.5 mph 32.2 mph N/A   Partly Cloudy
4:15 PM 37.4 °F 25.9 °F 28.4 °F 70% 29.86 in 10.0 mi NW 25.3 mph 31.1 mph N/A   Mostly Cloudy
4:35 PM 37.4 °F 25.4 °F 26.6 °F 65% 29.86 in 10.0 mi NW 27.6 mph 32.2 mph N/A   Partly Cloudy
4:55 PM 37.4 °F 25.9 °F 26.6 °F 65% 29.86 in 10.0 mi NW 25.3 mph 34.5 mph N/A   Clear
5:15 PM 35.6 °F 23.4 °F 24.8 °F 65% 29.86 in 10.0 mi NW 25.3 mph 34.5 mph N/A   Clear
5:35 PM 37.4 °F 26.6 °F 24.8 °F 60% 29.86 in 10.0 mi WNW 21.9 mph 33.4 mph N/A   Clear
5:55 PM 35.6 °F 23.4 °F 24.8 °F 65% 29.86 in 10.0 mi NW 25.3 mph 34.5 mph N/A   Clear
6:15 PM 35.6 °F 23.7 °F 23.0 °F 60% 29.87 in 10.0 mi NW 24.2 mph 34.5 mph N/A   Clear
6:35 PM 35.6 °F 24.8 °F 23.0 °F 60% 29.87 in 10.0 mi NW 19.6 mph 32.2 mph N/A   Clear
6:55 PM 35.6 °F 24.2 °F 23.0 °F 60% 29.88 in 10.0 mi NW 21.9 mph 27.6 mph N/A   Clear
7:15 PM 33.8 °F 22.8 °F 24.8 °F 70% 29.88 in 10.0 mi NW 18.4 mph 31.1 mph N/A   Clear
7:35 PM 32.0 °F 18.6 °F 23.0 °F 69% 29.89 in 10.0 mi NW 25.3 mph 36.8 mph N/A   Scattered Clouds
7:55 PM 32.0 °F 18.4 °F 24.8 °F 75% 29.90 in 10.0 mi NW 26.5 mph 33.4 mph N/A   Overcast
8:15 PM 32.0 °F 18.6 °F 23.0 °F 69% 29.90 in 10.0 mi NW 25.3 mph 34.5 mph N/A   Overcast
8:35 PM 32.0 °F 18.1 °F 23.0 °F 69% 29.90 in 10.0 mi WNW 27.6 mph 34.5 mph N/A   Overcast
8:55 PM 32.0 °F 18.6 °F 24.8 °F 75% 29.90 in 10.0 mi WNW 25.3 mph 31.1 mph N/A   Overcast
9:15 PM 28.4 °F 13.5 °F 23.0 °F 80% 29.90 in 10.0 mi WNW 26.5 mph 36.8 mph N/A   Mostly Cloudy
9:35 PM 28.4 °F 14.1 °F 24.8 °F 86% 29.90 in 10.0 mi NW 24.2 mph 28.8 mph N/A   Overcast
9:55 PM 28.4 °F 14.4 °F 24.8 °F 86% 29.91 in 10.0 mi NW 23.0 mph 33.4 mph N/A   Overcast
10:15 PM 26.6 °F 10.8 °F 23.0 °F 86% 29.92 in 10.0 mi NW 27.6 mph 38.0 mph N/A   Overcast
10:35 PM 26.6 °F 12.7 °F 23.0 °F 86% 29.93 in 10.0 mi NW 20.7 mph 31.1 mph N/A Rain Light Freezing Rain
10:55 PM 26.6 °F 12.7 °F 24.8 °F 93% 29.93 in 10.0 mi NW 20.7 mph 28.8 mph N/A Rain Light Freezing Rain
11:15 PM 26.6 °F 10.3 °F 24.8 °F 93% 29.93 in 6.0 mi NW 29.9 mph 35.7 mph N/A Rain Light Freezing Rain
11:35 PM 26.6 °F 12.4 °F 24.8 °F 93% 29.94 in 5.0 mi NW 21.9 mph 34.5 mph 0.02 in Snow Light Snow
11:55 PM 26.6 °F 10.8 °F 24.8 °F 93% 29.95 in 4.0 mi NW 27.6 mph 36.8 mph 0.05 in   Mostly Cloudy